Time;durP1;ratioP1;P1;durP2;ratioP2;P2;SDS_P1;SDS_P2;PMS_P1;PMS_P2;Temp;Humidity;BMP_temperature;BMP_pressure;BME280_temperature;BME280_humidity;BME280_pressure;Samples;Min_cycle;Max_cycle;Signal;HPM_P1;HPM_P2
2023/10/16 00:01:57;;;;;;;6.28;5.95;;;;;;;;;;4136795;28;20286;-72
2023/10/16 00:03:58;;;;;;;6.07;5.68;;;;;;;;;;4132198;28;20048;-72
2023/10/16 00:06:05;;;;;;;5.35;5.15;;;;;;;;;;4132488;28;20070;-70
2023/10/16 00:08:06;;;;;;;4.70;4.45;;;;;;;;;;4132363;28;20491;-70
2023/10/16 00:10:11;;;;;;;3.37;3.27;;;;;;;;;;4132867;28;20050;-70
2023/10/16 00:12:19;;;;;;;4.43;4.13;;;;;;;;;;4133879;28;20299;-70
2023/10/16 00:14:23;;;;;;;3.28;3.17;;;;;;;;;;4132444;28;20050;-70
2023/10/16 00:16:28;;;;;;;5.07;4.57;;;;;;;;;;4146196;28;20056;-73
2023/10/16 00:18:34;;;;;;;5.35;5.20;;;;;;;;;;4164693;28;20115;-70
2023/10/16 00:20:36;;;;;;;5.20;5.00;;;;;;;;;;4164820;28;20123;-70
2023/10/16 00:22:38;;;;;;;5.40;5.30;;;;;;;;;;4164941;28;20045;-69
2023/10/16 00:24:45;;;;;;;5.35;4.97;;;;;;;;;;4165017;28;20053;-70
2023/10/16 00:26:50;;;;;;;4.60;4.30;;;;;;;;;;4164632;28;20053;-70
2023/10/16 00:29:02;;;;;;;4.55;4.35;;;;;;;;;;4164539;28;20120;-70
2023/10/16 00:31:04;;;;;;;4.25;4.00;;;;;;;;;;4157478;28;20042;-70
2023/10/16 00:33:08;;;;;;;3.60;3.40;;;;;;;;;;4148369;28;20092;-71
2023/10/16 00:35:15;;;;;;;3.70;3.40;;;;;;;;;;4147856;28;20458;-70
2023/10/16 00:37:20;;;;;;;4.82;4.63;;;;;;;;;;4148056;28;20120;-69
2023/10/16 00:39:25;;;;;;;4.30;4.10;;;;;;;;;;4148085;28;20053;-70
2023/10/16 00:41:28;;;;;;;5.03;4.63;;;;;;;;;;4148039;28;20122;-70
2023/10/16 00:43:32;;;;;;;4.28;4.07;;;;;;;;;;4148001;28;20478;-70
2023/10/16 00:45:39;;;;;;;3.63;3.50;;;;;;;;;;4147988;28;20053;-71
2023/10/16 00:47:41;;;;;;;3.72;3.53;;;;;;;;;;4147652;28;20133;-72
2023/10/16 00:49:43;;;;;;;5.63;5.43;;;;;;;;;;4148042;28;20065;-69
2023/10/16 00:51:45;;;;;;;5.25;5.15;;;;;;;;;;4147616;28;20045;-70
2023/10/16 00:53:47;;;;;;;5.07;4.97;;;;;;;;;;4147911;28;20100;-69
2023/10/16 00:55:49;;;;;;;4.25;4.15;;;;;;;;;;4148027;28;20042;-69
2023/10/16 00:57:51;;;;;;;3.97;3.75;;;;;;;;;;4155794;28;20045;-70
2023/10/16 00:59:53;;;;;;;4.63;4.22;;;;;;;;;;4164179;28;20037;-69
2023/10/16 01:02:09;;;;;;;3.83;3.63;;;;;;;;;;4162877;28;20037;-69
2023/10/16 01:04:11;;;;;;;3.20;3.20;;;;;;;;;;4163842;28;20543;-69
2023/10/16 01:06:16;;;;;;;2.90;2.85;;;;;;;;;;4163915;28;20061;-70
2023/10/16 01:08:18;;;;;;;2.97;2.88;;;;;;;;;;4144810;28;20401;-69
2023/10/16 01:10:20;;;;;;;2.50;2.47;;;;;;;;;;4148003;28;20046;-70
2023/10/16 01:12:22;;;;;;;3.67;3.45;;;;;;;;;;4147690;28;20050;-70
2023/10/16 01:14:24;;;;;;;2.45;2.35;;;;;;;;;;4147704;28;20046;-69
2023/10/16 01:16:26;;;;;;;;;;;;;;;;;;4155255;28;20064;-69
2023/10/16 01:18:27;;;;;;;3.42;3.22;;;;;;;;;;4164202;28;19931;-70
2023/10/16 01:20:30;;;;;;;2.90;2.80;;;;;;;;;;4164252;28;20037;-69
2023/10/16 01:22:34;;;;;;;2.22;2.13;;;;;;;;;;4164061;28;20044;-70
2023/10/16 01:24:43;;;;;;;2.33;2.22;;;;;;;;;;4164064;28;20037;-69
2023/10/16 01:26:45;;;;;;;2.95;2.08;;;;;;;;;;4164174;28;20457;-70
2023/10/16 01:28:47;;;;;;;2.20;2.20;;;;;;;;;;4164101;28;20042;-69
2023/10/16 01:30:52;;;;;;;2.67;2.67;;;;;;;;;;4157665;28;20042;-70
2023/10/16 01:32:53;;;;;;;3.80;3.67;;;;;;;;;;4147504;28;20778;-71
2023/10/16 01:34:56;;;;;;;3.03;2.83;;;;;;;;;;4147677;28;20513;-70
2023/10/16 01:37:04;;;;;;;2.80;2.80;;;;;;;;;;4147738;28;20137;-70
2023/10/16 01:39:30;;;;;;;4.20;4.10;;;;;;;;;;4147327;28;20581;-70
2023/10/16 01:41:29;;;;;;;3.83;3.58;;;;;;;;;;4147369;28;20056;-70
2023/10/16 01:43:33;;;;;;;5.85;3.50;;;;;;;;;;4147596;28;20125;-70
2023/10/16 01:45:34;;;;;;;2.88;2.78;;;;;;;;;;4147458;28;20049;-70
2023/10/16 01:47:36;;;;;;;2.80;2.70;;;;;;;;;;4147331;28;20046;-70
2023/10/16 01:49:38;;;;;;;2.77;2.60;;;;;;;;;;4147502;28;20073;-70
2023/10/16 01:51:43;;;;;;;2.30;2.30;;;;;;;;;;4147479;28;20297;-70
2023/10/16 01:53:51;;;;;;;3.00;2.90;;;;;;;;;;4147554;28;20054;-71
2023/10/16 01:55:56;;;;;;;3.60;3.50;;;;;;;;;;4147688;28;20096;-71
2023/10/16 01:57:59;;;;;;;2.97;2.88;;;;;;;;;;4146152;28;20050;-70
2023/10/16 02:00:01;;;;;;;3.55;3.35;;;;;;;;;;4147398;28;20096;-69
2023/10/16 02:02:02;;;;;;;3.00;2.90;;;;;;;;;;4147400;28;20045;-70
2023/10/16 02:04:06;;;;;;;4.00;3.70;;;;;;;;;;4140689;28;20301;-70
2023/10/16 02:06:08;;;;;;;3.55;3.40;;;;;;;;;;4134373;28;20034;-69
2023/10/16 02:08:12;;;;;;;2.83;2.83;;;;;;;;;;4134151;28;20038;-70
2023/10/16 02:10:14;;;;;;;3.25;2.72;;;;;;;;;;4134104;28;20043;-69
2023/10/16 02:12:17;;;;;;;3.13;3.13;;;;;;;;;;4133103;28;20054;-69
2023/10/16 02:14:20;;;;;;;3.75;3.65;;;;;;;;;;4134519;28;20471;-70
2023/10/16 02:16:25;;;;;;;3.17;2.88;;;;;;;;;;4146414;28;20539;-70
2023/10/16 02:18:36;;;;;;;3.28;3.17;;;;;;;;;;4166522;28;20037;-70
2023/10/16 02:20:38;;;;;;;3.83;3.72;;;;;;;;;;4166651;28;20063;-70
2023/10/16 02:22:40;;;;;;;3.72;3.58;;;;;;;;;;4166515;28;20493;-70
2023/10/16 02:24:42;;;;;;;4.28;4.22;;;;;;;;;;4166440;28;20041;-70
2023/10/16 02:26:55;;;;;;;4.03;3.92;;;;;;;;;;4166639;28;20562;-70
2023/10/16 02:29:00;;;;;;;4.93;4.70;;;;;;;;;;4166386;28;20095;-69
2023/10/16 02:31:10;;;;;;;4.70;4.60;;;;;;;;;;4159557;28;20569;-70
2023/10/16 02:35:21;;;;;;;5.05;4.95;;;;;;;;;;4150000;28;20522;-70
2023/10/16 02:37:23;;;;;;;4.22;4.03;;;;;;;;;;4150050;28;20045;-70
2023/10/16 02:39:50;;;;;;;;;;;;;;;;;;4150106;28;20502;-69
2023/10/16 02:41:47;;;;;;;4.65;4.55;;;;;;;;;;4133418;28;19922;-70
2023/10/16 02:43:49;;;;;;;5.60;5.30;;;;;;;;;;4133827;28;20050;-70
2023/10/16 02:45:53;;;;;;;5.38;5.28;;;;;;;;;;4133487;28;20038;-70
2023/10/16 02:47:54;;;;;;;5.13;4.90;;;;;;;;;;4148925;28;20065;-70
2023/10/16 02:49:56;;;;;;;4.97;4.57;;;;;;;;;;4149920;28;20418;-69
2023/10/16 02:51:59;;;;;;;4.80;4.68;;;;;;;;;;4149977;28;20568;-70
2023/10/16 02:54:00;;;;;;;5.30;5.00;;;;;;;;;;4149938;28;20046;-69
2023/10/16 02:56:05;;;;;;;5.17;4.97;;;;;;;;;;4149539;28;20046;-69
2023/10/16 02:58:11;;;;;;;5.60;5.40;;;;;;;;;;4149491;28;20644;-70
2023/10/16 03:00:17;;;;;;;4.68;4.63;;;;;;;;;;4140937;28;20118;-69
2023/10/16 03:02:23;;;;;;;4.75;4.55;;;;;;;;;;4133546;28;20375;-69
2023/10/16 03:04:27;;;;;;;5.63;5.32;;;;;;;;;;4133067;28;20057;-70
2023/10/16 03:06:31;;;;;;;5.50;5.20;;;;;;;;;;4133394;28;20036;-70
2023/10/16 03:08:32;;;;;;;6.28;5.97;;;;;;;;;;4133366;28;20112;-70
2023/10/16 03:10:36;;;;;;;5.80;5.67;;;;;;;;;;4133261;28;20050;-70
2023/10/16 03:12:38;;;;;;;6.68;5.95;;;;;;;;;;4133155;28;20293;-70
2023/10/16 03:14:46;;;;;;;6.50;6.13;;;;;;;;;;4133122;28;20046;-70
2023/10/16 03:16:48;;;;;;;5.93;5.80;;;;;;;;;;4152300;28;20841;-70
2023/10/16 03:18:50;;;;;;;5.50;5.40;;;;;;;;;;4165837;28;20099;-69
2023/10/16 03:21:26;;;;;;;6.68;6.25;;;;;;;;;;4165518;28;20048;-70
2023/10/16 03:23:28;;;;;;;6.72;6.43;;;;;;;;;;4165591;28;20061;-70
2023/10/16 03:25:51;;;;;;;6.82;6.63;;;;;;;;;;4165370;28;20571;-70
2023/10/16 03:27:55;;;;;;;5.78;5.65;;;;;;;;;;4165577;28;20425;-70
2023/10/16 03:29:57;;;;;;;7.25;6.95;;;;;;;;;;4165438;28;20501;-70
2023/10/16 03:31:59;;;;;;;6.30;5.97;;;;;;;;;;4151010;28;20133;-70
2023/10/16 03:34:00;;;;;;;6.10;5.80;;;;;;;;;;4149279;28;20046;-70
2023/10/16 03:36:02;;;;;;;6.23;6.13;;;;;;;;;;4148946;28;20654;-71
2023/10/16 03:38:11;;;;;;;6.15;6.05;;;;;;;;;;4149293;28;20100;-70
2023/10/16 03:40:13;;;;;;;12.52;8.55;;;;;;;;;;4149186;28;20046;-71
2023/10/16 03:42:17;;;;;;;7.78;7.57;;;;;;;;;;4148850;28;20052;-69
2023/10/16 03:44:19;;;;;;;6.30;6.00;;;;;;;;;;4148787;28;20038;-70
2023/10/16 03:46:21;;;;;;;7.45;7.25;;;;;;;;;;4152379;28;20041;-70
2023/10/16 03:48:23;;;;;;;8.57;8.05;;;;;;;;;;4148754;28;20054;-70
2023/10/16 03:50:25;;;;;;;7.70;7.57;;;;;;;;;;4149008;28;20052;-70
2023/10/16 03:52:27;;;;;;;8.63;8.23;;;;;;;;;;4148701;28;20794;-71
2023/10/16 03:54:35;;;;;;;6.80;6.22;;;;;;;;;;4148968;28;20056;-70
2023/10/16 03:56:37;;;;;;;7.97;7.57;;;;;;;;;;4138844;28;20506;-69
2023/10/16 03:58:41;;;;;;;8.10;7.90;;;;;;;;;;4132590;28;20101;-70
2023/10/16 04:01:28;;;;;;;7.40;6.82;;;;;;;;;;4132535;28;20826;-70
2023/10/16 04:03:08;;;;;;;6.50;6.00;;;;;;;;;;4119001;28;20105;-69
2023/10/16 04:07:31;;;;;;;5.25;5.05;;;;;;;;;;4132411;28;20125;-69
2023/10/16 04:09:33;;;;;;;7.60;7.18;;;;;;;;;;4132267;28;20077;-69
2023/10/16 04:11:37;;;;;;;5.78;5.57;;;;;;;;;;4132236;28;20138;-69
2023/10/16 04:13:47;;;;;;;5.35;5.13;;;;;;;;;;4132210;28;20411;-69
2023/10/16 04:18:04;;;;;;;6.95;6.65;;;;;;;;;;4164519;28;20132;-70
2023/10/16 04:22:40;;;;;;;5.95;5.60;;;;;;;;;;4164866;28;20049;-69
2023/10/16 04:24:45;;;;;;;5.65;5.43;;;;;;;;;;4164869;28;20087;-70
2023/10/16 04:26:56;;;;;;;5.82;5.32;;;;;;;;;;4164243;28;20121;-70
2023/10/16 04:34:13;;;;;;;6.43;6.22;;;;;;;;;;4113806;28;20077;-70
2023/10/16 04:38:53;;;;;;;6.65;6.40;;;;;;;;;;4147879;28;20125;-69
2023/10/16 04:43:37;;;;;;;7.13;6.95;;;;;;;;;;4160140;28;20041;-69
2023/10/16 04:45:39;;;;;;;6.72;6.57;;;;;;;;;;4164358;28;20045;-70
2023/10/16 04:50:07;;;;;;;6.85;6.55;;;;;;;;;;4148138;28;20042;-69
2023/10/16 04:52:23;;;;;;;7.53;7.18;;;;;;;;;;4144307;28;20034;-70
2023/10/16 04:54:45;;;;;;;7.00;6.55;;;;;;;;;;4131632;28;20070;-69
2023/10/16 05:02:10;;;;;;;6.20;5.55;;;;;;;;;;4066251;29;20048;-69
2023/10/16 05:04:48;;;;;;;5.95;5.65;;;;;;;;;;4066021;29;20551;-70
2023/10/16 05:15:51;;;;;;;4.53;4.32;;;;;;;;;;4066623;29;20064;-69
2023/10/16 05:18:11;;;;;;;5.90;5.65;;;;;;;;;;4097717;29;20047;-69
2023/10/16 06:14:13;;;;;;;5.80;5.60;;;;;;;;;;4134370;28;20046;-70
2023/10/16 06:16:18;;;;;;;6.38;6.28;;;;;;;;;;4144692;28;20516;-69
2023/10/16 06:18:20;;;;;;;6.00;5.80;;;;;;;;;;4166723;28;20041;-69
2023/10/16 06:20:21;;;;;;;6.73;6.63;;;;;;;;;;4182014;28;20072;-69
2023/10/16 06:22:24;;;;;;;6.85;6.65;;;;;;;;;;4166800;28;20045;-69
2023/10/16 06:24:32;;;;;;;6.32;5.85;;;;;;;;;;4166473;28;20033;-69
2023/10/16 06:26:38;;;;;;;6.53;6.25;;;;;;;;;;4150326;28;20038;-70
2023/10/16 06:28:47;;;;;;;6.88;6.57;;;;;;;;;;4150232;28;20401;-70
2023/10/16 06:30:48;;;;;;;6.75;6.55;;;;;;;;;;4145221;28;20092;-72
2023/10/16 06:32:52;;;;;;;5.72;5.63;;;;;;;;;;4148819;28;20046;-69
2023/10/16 06:34:58;;;;;;;6.80;6.60;;;;;;;;;;4144161;28;20041;-70
2023/10/16 06:37:06;;;;;;;6.25;6.13;;;;;;;;;;4166362;28;20038;-70
2023/10/16 06:39:22;;;;;;;7.10;6.45;;;;;;;;;;4166027;28;20041;-69
2023/10/16 06:41:24;;;;;;;6.07;5.90;;;;;;;;;;4166225;28;20041;-70
2023/10/16 06:43:26;;;;;;;6.07;5.88;;;;;;;;;;4166449;28;20056;-70
2023/10/16 06:45:40;;;;;;;5.60;5.43;;;;;;;;;;4142111;28;20105;-70
2023/10/16 06:47:47;;;;;;;6.18;5.97;;;;;;;;;;4147472;28;20092;-72
2023/10/16 06:49:54;;;;;;;6.78;6.63;;;;;;;;;;4149702;28;20132;-71
2023/10/16 06:51:58;;;;;;;7.32;7.07;;;;;;;;;;4149724;28;20045;-71
2023/10/16 06:54:01;;;;;;;6.50;6.25;;;;;;;;;;4149993;28;20100;-71
2023/10/16 06:56:03;;;;;;;7.03;6.65;;;;;;;;;;4149670;28;20119;-70
2023/10/16 06:58:05;;;;;;;6.30;6.05;;;;;;;;;;4149604;28;20077;-71
2023/10/16 07:00:23;;;;;;;6.80;6.30;;;;;;;;;;4149529;28;20482;-72
2023/10/16 07:02:26;;;;;;;7.15;7.05;;;;;;;;;;4149600;28;20497;-70
2023/10/16 07:04:29;;;;;;;6.38;6.00;;;;;;;;;;4149190;28;20042;-71
2023/10/16 07:06:34;;;;;;;5.90;5.60;;;;;;;;;;4149496;28;20065;-70
2023/10/16 07:08:38;;;;;;;5.97;5.57;;;;;;;;;;4149436;28;20066;-70
2023/10/16 07:10:41;;;;;;;4.68;4.53;;;;;;;;;;4149507;28;20030;-70
2023/10/16 07:13:02;;;;;;;5.65;4.82;;;;;;;;;;4149378;28;20586;-70
2023/10/16 07:15:08;;;;;;;4.40;4.20;;;;;;;;;;4149412;28;20042;-71
2023/10/16 07:17:13;;;;;;;5.03;4.82;;;;;;;;;;4162346;28;20288;-73
2023/10/16 07:19:16;;;;;;;4.72;4.53;;;;;;;;;;4165690;28;20136;-71
2023/10/16 07:21:18;;;;;;;5.20;5.00;;;;;;;;;;4160910;28;20593;-70
2023/10/16 07:23:20;;;;;;;5.40;5.30;;;;;;;;;;4149234;28;20034;-73
2023/10/16 07:25:25;;;;;;;4.05;3.85;;;;;;;;;;4149222;28;20038;-71
2023/10/16 07:27:31;;;;;;;4.32;4.32;;;;;;;;;;4149228;28;20044;-72
2023/10/16 07:29:32;;;;;;;3.60;3.50;;;;;;;;;;4149244;28;20445;-70
2023/10/16 07:31:35;;;;;;;4.13;3.55;;;;;;;;;;4157560;28;20045;-71
2023/10/16 07:33:38;;;;;;;2.72;2.53;;;;;;;;;;4165497;28;20047;-70
2023/10/16 07:35:44;;;;;;;2.75;2.50;;;;;;;;;;4165493;28;20052;-70
2023/10/16 07:37:48;;;;;;;2.20;2.20;;;;;;;;;;4165357;28;20041;-70
2023/10/16 07:39:50;;;;;;;1.98;1.88;;;;;;;;;;4165045;28;20041;-70
2023/10/16 07:41:53;;;;;;;1.50;1.50;;;;;;;;;;4139192;28;20101;-70
2023/10/16 07:43:59;;;;;;;2.42;1.92;;;;;;;;;;4132764;28;20328;-72
2023/10/16 07:48:21;;;;;;;2.75;1.58;;;;;;;;;;4148991;28;20073;-71
2023/10/16 07:50:23;;;;;;;3.22;3.03;;;;;;;;;;4148790;28;20168;-70
2023/10/16 07:52:27;;;;;;;6.22;1.75;;;;;;;;;;4148982;28;20103;-70
2023/10/16 07:54:29;;;;;;;1.52;1.52;;;;;;;;;;4148733;28;20042;-71
2023/10/16 07:56:32;;;;;;;1.95;1.85;;;;;;;;;;4148781;28;20532;-71
2023/10/16 07:58:34;;;;;;;1.50;1.50;;;;;;;;;;4148788;28;20053;-71
2023/10/16 08:00:42;;;;;;;11.63;1.90;;;;;;;;;;4147861;28;20089;-70
2023/10/16 08:02:46;;;;;;;3.13;1.95;;;;;;;;;;4148503;28;20573;-70
2023/10/16 08:04:51;;;;;;;1.60;1.50;;;;;;;;;;4148471;28;20038;-72
2023/10/16 08:06:55;;;;;;;2.25;1.60;;;;;;;;;;4148632;28;20080;-72
2023/10/16 08:11:20;;;;;;;3.85;1.80;;;;;;;;;;4148580;28;20042;-72
2023/10/16 08:13:24;;;;;;;2.08;2.00;;;;;;;;;;4148500;28;20038;-73
2023/10/16 08:15:27;;;;;;;1.60;1.60;;;;;;;;;;4148457;28;20044;-73
2023/10/16 08:17:32;;;;;;;1.40;1.40;;;;;;;;;;4161022;28;20077;-71
2023/10/16 08:19:34;;;;;;;2.10;1.40;;;;;;;;;;4148370;28;20038;-71
2023/10/16 08:21:39;;;;;;;1.65;1.40;;;;;;;;;;4148388;28;20044;-72
2023/10/16 08:23:45;;;;;;;2.05;1.90;;;;;;;;;;4148236;28;20070;-73
2023/10/16 08:25:47;;;;;;;2.05;1.95;;;;;;;;;;4148407;28;20454;-70
2023/10/16 08:27:50;;;;;;;2.67;2.67;;;;;;;;;;4148230;28;20034;-72
2023/10/16 08:29:58;;;;;;;2.55;2.45;;;;;;;;;;4148242;28;20069;-71
2023/10/16 08:34:20;;;;;;;4.97;1.70;;;;;;;;;;4148471;28;20104;-71
2023/10/16 08:36:23;;;;;;;1.48;1.13;;;;;;;;;;4148004;28;20049;-72
2023/10/16 08:38:32;;;;;;;;;;;;;;;;;;4134617;28;20049;-71
2023/10/16 08:40:35;;;;;;;3.42;1.30;;;;;;;;;;4131985;28;19933;-71
2023/10/16 08:42:36;;;;;;;;;;;;;;;;;;4132367;28;20047;-71
2023/10/16 08:44:38;;;;;;;1.00;1.00;;;;;;;;;;4131855;28;19928;-71
2023/10/16 08:49:14;;;;;;;1.00;1.00;;;;;;;;;;4125618;28;20054;-71
2023/10/16 08:51:19;;;;;;;2.60;1.48;;;;;;;;;;4148437;28;20042;-72
2023/10/16 08:53:32;;;;;;;2.85;1.00;;;;;;;;;;4147966;28;20042;-72
2023/10/16 08:55:35;;;;;;;2.97;1.33;;;;;;;;;;4147979;28;20518;-71
2023/10/16 08:57:38;;;;;;;1.35;1.00;;;;;;;;;;4147813;28;20049;-72
2023/10/16 08:59:42;;;;;;;1.00;1.00;;;;;;;;;;4147886;28;20049;-71
2023/10/16 09:01:48;;;;;;;0.95;0.95;;;;;;;;;;4147874;28;20125;-72
2023/10/16 09:03:59;;;;;;;0.90;0.90;;;;;;;;;;4147615;28;20061;-73
2023/10/16 09:06:04;;;;;;;1.10;1.10;;;;;;;;;;4147958;28;20034;-71
2023/10/16 09:08:06;;;;;;;4.53;1.00;;;;;;;;;;4147795;28;20038;-71
2023/10/16 09:10:11;;;;;;;0.80;0.80;;;;;;;;;;4148028;28;20053;-70
2023/10/16 09:12:13;;;;;;;2.78;0.80;;;;;;;;;;4147813;28;20056;-71
2023/10/16 09:14:17;;;;;;;1.85;0.90;;;;;;;;;;4147683;28;20038;-70
2023/10/16 09:16:23;;;;;;;2.65;0.90;;;;;;;;;;4147644;28;20072;-72
2023/10/16 09:18:25;;;;;;;1.75;0.90;;;;;;;;;;4147857;28;20304;-70
2023/10/16 09:20:39;;;;;;;1.00;1.00;;;;;;;;;;4147789;28;20046;-72
2023/10/16 09:22:46;;;;;;;1.40;0.90;;;;;;;;;;4147666;28;20045;-71
2023/10/16 09:24:51;;;;;;;0.90;0.90;;;;;;;;;;4162260;28;20045;-71
2023/10/16 09:26:56;;;;;;;1.48;0.90;;;;;;;;;;4163995;28;20045;-71
2023/10/16 09:29:05;;;;;;;1.92;0.90;;;;;;;;;;4164250;28;20033;-71
2023/10/16 09:31:06;;;;;;;0.90;0.90;;;;;;;;;;4156585;28;20040;-71
2023/10/16 09:33:14;;;;;;;2.17;0.90;;;;;;;;;;4145686;28;20057;-74
2023/10/16 09:35:17;;;;;;;1.00;0.90;;;;;;;;;;4131222;28;20050;-72
2023/10/16 09:37:24;;;;;;;1.00;1.00;;;;;;;;;;4131677;28;20057;-73
2023/10/16 09:39:30;;;;;;;1.77;1.70;;;;;;;;;;4131081;28;20076;-72
2023/10/16 09:41:40;;;;;;;2.22;1.00;;;;;;;;;;4131304;28;20041;-71
2023/10/16 09:43:42;;;;;;;2.58;1.33;;;;;;;;;;4131352;28;20518;-72
2023/10/16 09:45:46;;;;;;;;;;;;;;;;;;4131676;28;20042;-70
2023/10/16 09:47:48;;;;;;;1.75;1.10;;;;;;;;;;4145719;28;19928;-73
2023/10/16 09:49:52;;;;;;;3.80;0.95;;;;;;;;;;4147628;28;20045;-72
2023/10/16 09:52:03;;;;;;;1.55;0.90;;;;;;;;;;4147493;28;20038;-73
2023/10/16 09:54:09;;;;;;;0.90;0.90;;;;;;;;;;4147443;28;20068;-73
2023/10/16 09:56:12;;;;;;;0.93;0.90;;;;;;;;;;4147353;28;20049;-71
2023/10/16 09:58:15;;;;;;;0.90;0.90;;;;;;;;;;4147679;28;20045;-70
2023/10/16 10:00:30;;;;;;;4.13;1.00;;;;;;;;;;4147378;28;20058;-71
2023/10/16 10:02:35;;;;;;;1.50;0.80;;;;;;;;;;4147452;28;20442;-71
2023/10/16 10:04:43;;;;;;;1.88;0.93;;;;;;;;;;4147176;28;20078;-71
2023/10/16 10:06:46;;;;;;;1.08;0.80;;;;;;;;;;4147439;28;20044;-71
2023/10/16 10:11:17;;;;;;;0.80;0.80;;;;;;;;;;4136656;28;20056;-72
2023/10/16 10:13:34;;;;;;;0.80;0.80;;;;;;;;;;4143166;28;20593;-72
2023/10/16 10:15:49;;;;;;;0.95;0.95;;;;;;;;;;4147577;28;20085;-71
2023/10/16 10:17:54;;;;;;;1.95;0.80;;;;;;;;;;4146736;28;20120;-72
2023/10/16 10:19:56;;;;;;;0.80;0.80;;;;;;;;;;4137888;28;20117;-70
2023/10/16 10:22:05;;;;;;;0.90;0.90;;;;;;;;;;4136065;28;20449;-71
2023/10/16 10:24:08;;;;;;;0.85;0.80;;;;;;;;;;4139357;28;20130;-72
2023/10/16 10:26:15;;;;;;;0.80;0.80;;;;;;;;;;4149661;28;20045;-72
2023/10/16 10:28:28;;;;;;;1.00;1.00;;;;;;;;;;4148442;28;20568;-71
2023/10/16 10:30:37;;;;;;;4.63;0.90;;;;;;;;;;4139263;28;20100;-72
2023/10/16 10:32:38;;;;;;;1.58;0.90;;;;;;;;;;4149974;28;20077;-72
2023/10/16 10:34:42;;;;;;;0.80;0.80;;;;;;;;;;4148368;28;20034;-70
2023/10/16 10:36:44;;;;;;;1.00;1.00;;;;;;;;;;4137204;28;20050;-72
2023/10/16 10:38:46;;;;;;;1.95;1.00;;;;;;;;;;4140989;28;20046;-72
2023/10/16 10:40:48;;;;;;;;;;;;;;;;;;4147543;28;20129;-73
2023/10/16 10:42:53;;;;;;;0.90;0.90;;;;;;;;;;4145337;28;19929;-72
2023/10/16 10:45:29;;;;;;;1.25;0.90;;;;;;;;;;4147417;28;20051;-71
2023/10/16 10:47:32;;;;;;;3.03;0.80;;;;;;;;;;4147977;28;20030;-73
2023/10/16 10:49:34;;;;;;;5.95;0.90;;;;;;;;;;4146656;28;20046;-71
2023/10/16 10:51:44;;;;;;;0.75;0.75;;;;;;;;;;4147496;28;20056;-71
2023/10/16 10:53:55;;;;;;;1.40;0.80;;;;;;;;;;4146811;28;20085;-71
2023/10/16 10:55:57;;;;;;;0.80;0.80;;;;;;;;;;4148067;28;20053;-71
2023/10/16 10:58:01;;;;;;;0.80;0.80;;;;;;;;;;4147779;28;20037;-71
2023/10/16 11:04:19;;;;;;;1.23;0.80;;;;;;;;;;4149290;28;20053;-71
2023/10/16 11:08:56;;;;;;;1.50;1.48;;;;;;;;;;4099350;29;20114;-72
2023/10/16 11:11:03;;;;;;;1.20;0.80;;;;;;;;;;4083303;29;20058;-72
2023/10/16 11:13:05;;;;;;;1.05;0.80;;;;;;;;;;4098651;29;20058;-72
2023/10/16 11:15:24;;;;;;;1.10;0.70;;;;;;;;;;4099301;29;20134;-71
2023/10/16 11:17:33;;;;;;;0.90;0.90;;;;;;;;;;4113855;28;20051;-71
2023/10/16 11:22:21;;;;;;;1.40;0.80;;;;;;;;;;4098800;29;20086;-72
2023/10/16 11:24:24;;;;;;;;;;;;;;;;;;4099556;29;20118;-72
2023/10/16 11:26:29;;;;;;;2.35;0.80;;;;;;;;;;4098910;29;19926;-72
2023/10/16 11:28:36;;;;;;;0.82;0.80;;;;;;;;;;4099111;29;20589;-74
2023/10/16 11:30:38;;;;;;;0.82;0.70;;;;;;;;;;4098997;29;20043;-73
2023/10/16 11:32:47;;;;;;;0.93;0.93;;;;;;;;;;4098959;29;20052;-72
2023/10/16 11:34:50;;;;;;;0.98;0.98;;;;;;;;;;4097568;28;20039;-74
2023/10/16 11:36:51;;;;;;;0.98;0.80;;;;;;;;;;4098581;29;20047;-73
2023/10/16 11:39:03;;;;;;;0.80;0.80;;;;;;;;;;4098799;29;20110;-72
2023/10/16 11:41:05;;;;;;;0.80;0.80;;;;;;;;;;4098964;29;20062;-74
2023/10/16 11:43:13;;;;;;;1.25;0.80;;;;;;;;;;4098944;29;20158;-72
2023/10/16 11:45:19;;;;;;;1.27;0.80;;;;;;;;;;4113583;28;20141;-72
2023/10/16 11:47:22;;;;;;;1.15;0.80;;;;;;;;;;4148614;28;20506;-71
2023/10/16 11:49:29;;;;;;;0.80;0.80;;;;;;;;;;4148282;28;20046;-72
2023/10/16 11:51:35;;;;;;;0.80;0.80;;;;;;;;;;4149030;28;20046;-74
2023/10/16 11:53:37;;;;;;;0.90;0.77;;;;;;;;;;4147878;28;20049;-73
2023/10/16 11:55:39;;;;;;;0.93;0.80;;;;;;;;;;4148740;28;20096;-71
2023/10/16 11:57:41;;;;;;;2.10;0.80;;;;;;;;;;4148680;28;20046;-72
2023/10/16 11:59:43;;;;;;;2.35;1.10;;;;;;;;;;4131554;28;20043;-72
2023/10/16 12:01:46;;;;;;;1.02;0.80;;;;;;;;;;4132312;28;20049;-72
2023/10/16 12:04:04;;;;;;;0.80;0.80;;;;;;;;;;4147485;28;20050;-72
2023/10/16 12:06:08;;;;;;;1.00;0.90;;;;;;;;;;4148647;28;20053;-71
2023/10/16 12:08:10;;;;;;;1.27;0.80;;;;;;;;;;4146779;28;20045;-72
2023/10/16 12:10:15;;;;;;;0.70;0.70;;;;;;;;;;4148642;28;20038;-71
2023/10/16 12:12:20;;;;;;;1.08;0.98;;;;;;;;;;4148090;28;20411;-72
2023/10/16 12:14:23;;;;;;;1.15;0.80;;;;;;;;;;4148659;28;20069;-71
2023/10/16 12:16:26;;;;;;;0.88;0.80;;;;;;;;;;4148658;28;20054;-73
2023/10/16 12:18:37;;;;;;;1.20;0.70;;;;;;;;;;4148365;28;20259;-71
2023/10/16 12:20:39;;;;;;;2.60;0.80;;;;;;;;;;4148216;28;20437;-73
2023/10/16 12:22:40;;;;;;;0.77;0.77;;;;;;;;;;4146308;28;20043;-69
2023/10/16 12:24:43;;;;;;;1.10;1.10;;;;;;;;;;4141886;28;20410;-73
2023/10/16 12:26:46;;;;;;;0.90;0.90;;;;;;;;;;4140904;28;20517;-71
2023/10/16 12:28:47;;;;;;;1.38;0.70;;;;;;;;;;4142132;28;20042;-70
2023/10/16 12:30:49;;;;;;;0.82;0.80;;;;;;;;;;4136392;28;20497;-71
2023/10/16 12:32:50;;;;;;;0.70;0.70;;;;;;;;;;4142455;28;20221;-71
2023/10/16 12:34:54;;;;;;;5.78;0.70;;;;;;;;;;4146707;28;20048;-71
2023/10/16 12:36:57;;;;;;;1.02;1.00;;;;;;;;;;4148323;28;20124;-72
2023/10/16 12:38:59;;;;;;;3.30;0.98;;;;;;;;;;4147988;28;20080;-71
2023/10/16 12:41:06;;;;;;;0.80;0.80;;;;;;;;;;4148077;28;20034;-71
2023/10/16 12:43:08;;;;;;;0.82;0.82;;;;;;;;;;4141137;28;20529;-71
2023/10/16 12:45:11;;;;;;;0.80;0.80;;;;;;;;;;4139137;28;20045;-71
2023/10/16 12:47:13;;;;;;;1.42;0.90;;;;;;;;;;4138050;28;20064;-73
2023/10/16 12:49:18;;;;;;;1.77;0.80;;;;;;;;;;4141990;28;20052;-70
2023/10/16 12:51:34;;;;;;;0.80;0.80;;;;;;;;;;4141504;28;20049;-71
2023/10/16 12:53:37;;;;;;;0.80;0.80;;;;;;;;;;4137133;28;20120;-71
2023/10/16 12:55:40;;;;;;;3.03;0.90;;;;;;;;;;4131866;28;20042;-71
2023/10/16 12:57:44;;;;;;;3.28;0.90;;;;;;;;;;4132827;28;20053;-71
2023/10/16 12:59:45;;;;;;;0.80;0.80;;;;;;;;;;4135170;28;20042;-71
2023/10/16 13:01:49;;;;;;;1.05;1.05;;;;;;;;;;4131613;28;20038;-71
2023/10/16 13:03:51;;;;;;;2.30;0.80;;;;;;;;;;4131418;28;20450;-72
2023/10/16 13:05:53;;;;;;;2.60;1.00;;;;;;;;;;4131893;28;20049;-71
2023/10/16 13:08:22;;;;;;;0.80;0.80;;;;;;;;;;4133839;28;20033;-71
2023/10/16 13:10:26;;;;;;;1.08;1.08;;;;;;;;;;4145744;28;20486;-73
2023/10/16 13:12:28;;;;;;;0.88;0.88;;;;;;;;;;4139071;28;20046;-73
2023/10/16 13:14:30;;;;;;;2.60;0.90;;;;;;;;;;4147088;28;20112;-72
2023/10/16 13:16:32;;;;;;;4.13;0.90;;;;;;;;;;4155682;28;20045;-71
2023/10/16 13:18:36;;;;;;;7.45;0.98;;;;;;;;;;4150936;28;20042;-75
2023/10/16 13:20:38;;;;;;;0.80;0.80;;;;;;;;;;4133048;28;20042;-71
2023/10/16 13:22:40;;;;;;;0.80;0.80;;;;;;;;;;4141344;28;20057;-72
2023/10/16 13:24:42;;;;;;;1.30;1.00;;;;;;;;;;4145872;28;20048;-72
2023/10/16 13:26:44;;;;;;;27.50;2.15;;;;;;;;;;4147668;28;20096;-70
2023/10/16 13:28:46;;;;;;;1.73;0.80;;;;;;;;;;4147805;28;20042;-71
2023/10/16 13:30:48;;;;;;;0.80;0.80;;;;;;;;;;4140245;28;20480;-71
2023/10/16 13:32:50;;;;;;;1.45;1.05;;;;;;;;;;4144734;28;20101;-71
2023/10/16 13:34:52;;;;;;;1.58;0.90;;;;;;;;;;4147635;28;20046;-72
2023/10/16 13:37:01;;;;;;;3.20;1.10;;;;;;;;;;4145983;28;20050;-72
2023/10/16 13:39:10;;;;;;;0.90;0.90;;;;;;;;;;4145976;28;20096;-70
2023/10/16 13:41:18;;;;;;;0.80;0.80;;;;;;;;;;4146501;28;20095;-71
2023/10/16 13:43:20;;;;;;;3.00;0.85;;;;;;;;;;4147600;28;20038;-71
2023/10/16 13:45:23;;;;;;;1.23;1.17;;;;;;;;;;4143438;28;20445;-71
2023/10/16 13:47:25;;;;;;;0.82;0.82;;;;;;;;;;4142786;28;20034;-71
2023/10/16 13:49:28;;;;;;;1.48;0.90;;;;;;;;;;4146708;28;20037;-71
2023/10/16 13:51:35;;;;;;;1.85;0.90;;;;;;;;;;4147680;28;20049;-71
2023/10/16 13:53:36;;;;;;;0.80;0.77;;;;;;;;;;4147819;28;20096;-71
2023/10/16 13:55:38;;;;;;;0.80;0.80;;;;;;;;;;4147356;28;20045;-72
2023/10/16 13:57:42;;;;;;;0.82;0.80;;;;;;;;;;4147587;28;20079;-73
2023/10/16 13:59:44;;;;;;;1.63;1.15;;;;;;;;;;4149939;28;20046;-73
2023/10/16 14:01:46;;;;;;;2.80;0.80;;;;;;;;;;4165408;28;20050;-72
2023/10/16 14:03:49;;;;;;;0.95;0.80;;;;;;;;;;4149033;28;20152;-71
2023/10/16 14:05:51;;;;;;;2.00;0.90;;;;;;;;;;4163551;28;20076;-70
2023/10/16 14:07:53;;;;;;;1.27;0.80;;;;;;;;;;4150477;28;20049;-71
2023/10/16 14:09:56;;;;;;;2.33;1.00;;;;;;;;;;4150409;28;20465;-71
2023/10/16 14:11:59;;;;;;;0.93;0.90;;;;;;;;;;4150435;28;20050;-73
2023/10/16 14:14:00;;;;;;;1.00;0.80;;;;;;;;;;4150153;28;20053;-72
2023/10/16 14:16:11;;;;;;;1.98;0.85;;;;;;;;;;4142578;28;20087;-70
2023/10/16 14:18:20;;;;;;;3.17;1.17;;;;;;;;;;4166680;28;20124;-71
2023/10/16 14:20:34;;;;;;;0.95;0.80;;;;;;;;;;4166575;28;20501;-72
2023/10/16 14:22:38;;;;;;;0.85;0.85;;;;;;;;;;4166726;28;20038;-70
2023/10/16 14:24:41;;;;;;;0.90;0.90;;;;;;;;;;4166628;28;20064;-71